createdAt,value
2023-05-04T00:01:46.047Z,7.20
2023-05-04T00:05:38.313Z,7.12
2023-05-04T00:09:02.861Z,7.08
2023-05-04T00:12:47.920Z,7.08
2023-05-04T00:15:59.847Z,7.06
2023-05-04T00:19:26.022Z,7.08
2023-05-04T00:22:33.248Z,7.07
2023-05-04T00:25:52.342Z,7.04
2023-05-04T00:28:56.431Z,7.01
2023-05-04T00:31:49.203Z,6.99
2023-05-04T00:35:08.263Z,6.97
2023-05-04T00:38:45.576Z,6.94
2023-05-04T00:41:49.051Z,6.92
2023-05-04T00:45:43.226Z,6.90
2023-05-04T00:49:22.596Z,6.88
2023-05-04T00:52:39.863Z,6.88
2023-05-04T00:56:21.684Z,6.87
2023-05-04T00:59:44.103Z,6.85
2023-05-04T01:03:44.817Z,6.75
2023-05-04T01:07:25.069Z,6.67
2023-05-04T01:11:30.189Z,6.54
2023-05-04T01:15:23.846Z,6.41
2023-05-04T01:19:33.257Z,6.21
2023-05-04T01:23:16.242Z,6.12
2023-05-04T01:26:56.145Z,6.06
2023-05-04T01:30:18.910Z,5.98
2023-05-04T01:34:18.213Z,5.94
2023-05-04T01:38:18.932Z,5.94
2023-05-04T01:42:08.736Z,5.97
2023-05-04T01:45:56.887Z,5.97
2023-05-04T01:49:30.755Z,5.96
2023-05-04T01:53:15.177Z,5.95
2023-05-04T01:57:24.751Z,5.95
2023-05-04T02:01:22.256Z,5.95
2023-05-04T02:05:24.573Z,5.94
2023-05-04T02:09:34.119Z,5.89
2023-05-04T02:13:36.412Z,5.84
2023-05-04T02:17:44.696Z,5.81
2023-05-04T02:21:18.328Z,5.81
2023-05-04T02:25:26.807Z,5.85
2023-05-04T02:29:28.882Z,5.90
2023-05-04T02:33:04.625Z,5.92
2023-05-04T02:37:14.292Z,5.92
2023-05-04T02:41:12.650Z,5.95
2023-05-04T02:44:54.844Z,5.96
2023-05-04T02:48:53.201Z,5.90
2023-05-04T02:52:34.018Z,5.87
2023-05-04T02:56:34.544Z,5.87
2023-05-04T03:00:44.148Z,5.81
2023-05-04T03:04:46.581Z,5.82
2023-05-04T03:08:31.102Z,5.82
2023-05-04T03:12:07.660Z,5.78
2023-05-04T03:16:09.766Z,5.77
2023-05-04T03:19:44.130Z,5.74
2023-05-04T03:23:19.549Z,5.68
2023-05-04T03:27:01.486Z,5.60
2023-05-04T03:30:12.973Z,5.58
2023-05-04T03:34:00.113Z,5.56
2023-05-04T03:37:46.996Z,5.57
2023-05-04T03:41:15.614Z,5.58
2023-05-04T03:44:25.371Z,5.60
2023-05-04T03:48:35.163Z,5.63
2023-05-04T03:52:17.624Z,5.64
2023-05-04T03:56:25.627Z,5.65
2023-05-04T03:59:58.167Z,5.67
2023-05-04T04:04:00.820Z,5.68
2023-05-04T04:07:46.776Z,5.72
2023-05-04T04:11:56.147Z,5.76
2023-05-04T04:15:46.786Z,5.82
2023-05-04T04:19:48.747Z,5.88
2023-05-04T04:23:24.662Z,5.91
2023-05-04T04:27:02.174Z,5.91
2023-05-04T04:30:25.679Z,5.92
2023-05-04T04:33:39.298Z,5.93
2023-05-04T04:37:29.483Z,5.93
2023-05-04T04:41:06.696Z,5.93
2023-05-04T04:44:51.723Z,5.95
2023-05-04T04:48:34.020Z,5.95
2023-05-04T04:52:04.024Z,5.99
2023-05-04T04:55:38.272Z,6.04
2023-05-04T04:59:47.948Z,6.08
2023-05-04T05:03:56.108Z,6.13
2023-05-04T05:08:05.523Z,6.22
2023-05-04T05:12:14.762Z,6.30
2023-05-04T05:16:09.355Z,6.40
2023-05-04T05:20:18.899Z,6.51
2023-05-04T05:24:21.010Z,6.62
2023-05-04T05:28:03.938Z,6.74
2023-05-04T05:31:53.392Z,6.86
2023-05-04T05:35:35.202Z,6.96
2023-05-04T05:39:21.939Z,7.05
2023-05-04T05:42:25.033Z,7.15
2023-05-04T05:45:48.830Z,7.22
2023-05-04T05:49:47.072Z,7.30
2023-05-04T05:53:56.451Z,7.39
2023-05-04T05:57:24.245Z,7.49
2023-05-04T06:00:55.556Z,7.57
2023-05-04T06:04:17.907Z,7.66
2023-05-04T06:08:22.484Z,7.73
2023-05-04T06:12:12.405Z,7.81
2023-05-04T06:15:27.185Z,7.88
2023-05-04T06:19:13.606Z,7.96
2023-05-04T06:23:23.253Z,8.02
2023-05-04T06:27:25.858Z,8.09
2023-05-04T06:31:18.310Z,8.18
2023-05-04T06:34:32.690Z,8.27
2023-05-04T06:37:54.537Z,8.35
2023-05-04T06:41:36.346Z,8.41
2023-05-04T06:45:39.601Z,8.48
2023-05-04T06:49:17.891Z,8.55
2023-05-04T06:52:42.674Z,8.62
2023-05-04T06:56:05.738Z,8.67
2023-05-04T06:59:23.656Z,8.73
2023-05-04T07:02:35.068Z,8.77
2023-05-04T07:06:17.346Z,8.82
2023-05-04T07:09:45.153Z,8.88
2023-05-04T07:13:54.600Z,8.93
2023-05-04T07:17:16.380Z,8.98
2023-05-04T07:20:31.722Z,9.02
2023-05-04T07:24:14.022Z,9.05
2023-05-04T07:27:38.134Z,9.09
2023-05-04T07:31:20.440Z,9.12
2023-05-04T07:34:54.821Z,9.15
2023-05-04T07:38:44.751Z,9.21
2023-05-04T07:42:54.345Z,9.27
2023-05-04T07:46:45.361Z,9.33
2023-05-04T07:50:41.583Z,9.38
2023-05-04T07:54:33.664Z,9.41
2023-05-04T07:57:51.496Z,9.45
2023-05-04T08:01:49.980Z,9.47
2023-05-04T08:05:41.321Z,9.51
2023-05-04T08:08:43.125Z,9.56
2023-05-04T08:12:28.390Z,9.62
2023-05-04T08:16:23.772Z,9.70
2023-05-04T08:20:04.332Z,9.76
2023-05-04T08:23:47.571Z,9.78
2023-05-04T08:27:07.861Z,9.80
2023-05-04T08:29:47.253Z,9.84
2023-05-04T08:32:59.442Z,9.86
2023-05-04T08:36:25.369Z,9.86
2023-05-04T08:39:47.916Z,9.88
2023-05-04T08:43:18.558Z,9.86
2023-05-04T08:46:53.913Z,9.83
2023-05-04T08:50:07.896Z,9.81
2023-05-04T08:53:28.544Z,9.85
2023-05-04T08:57:00.167Z,9.92
2023-05-04T09:00:29.713Z,9.97
2023-05-04T09:04:12.392Z,10.00
2023-05-04T09:07:51.958Z,10.01
2023-05-04T09:11:54.571Z,10.04
2023-05-04T09:15:19.789Z,10.09
2023-05-04T09:18:54.290Z,10.13
2023-05-04T09:22:20.016Z,10.14
2023-05-04T09:26:11.567Z,10.15
2023-05-04T09:29:49.700Z,10.19
2023-05-04T09:33:13.048Z,10.23
2023-05-04T09:36:55.673Z,10.26
2023-05-04T09:40:54.062Z,10.30
2023-05-04T09:43:57.819Z,10.36
2023-05-04T09:47:47.408Z,10.42
2023-05-04T09:51:19.544Z,10.50
2023-05-04T09:54:41.412Z,10.55
2023-05-04T09:58:19.279Z,10.58
2023-05-04T10:01:44.106Z,10.58
2023-05-04T10:05:21.618Z,10.60
2023-05-04T10:08:36.515Z,10.64
2023-05-04T10:12:15.499Z,10.65
2023-05-04T10:16:05.373Z,10.68
2023-05-04T10:20:07.347Z,10.75
2023-05-04T10:24:02.014Z,10.78
2023-05-04T10:27:32.369Z,10.76
2023-05-04T10:30:43.964Z,10.78
2023-05-04T10:34:25.280Z,10.81
2023-05-04T10:37:39.376Z,10.85
2023-05-04T10:41:20.478Z,10.85
2023-05-04T10:45:08.876Z,10.87
2023-05-04T10:49:08.724Z,10.90
2023-05-04T10:52:38.223Z,10.94
2023-05-04T10:55:47.898Z,11.01
2023-05-04T10:59:07.990Z,11.10
2023-05-04T11:03:02.447Z,11.16
2023-05-04T11:06:35.388Z,11.24
2023-05-04T11:09:26.709Z,11.35
2023-05-04T11:11:58.039Z,11.44
2023-05-04T11:15:06.088Z,11.51
2023-05-04T11:18:10.425Z,11.60
2023-05-04T11:21:42.196Z,11.68
2023-05-04T11:25:39.630Z,11.69
2023-05-04T11:29:15.965Z,11.72
2023-05-04T11:33:01.374Z,11.79
2023-05-04T11:36:50.578Z,11.80
2023-05-04T11:39:58.222Z,11.83
2023-05-04T11:43:01.467Z,11.85
2023-05-04T11:45:54.831Z,11.86
2023-05-04T11:49:26.217Z,11.94
2023-05-04T11:53:12.225Z,12.02
2023-05-04T11:56:08.494Z,12.08
2023-05-04T11:58:47.368Z,12.12
2023-05-04T12:01:54.826Z,12.16
2023-05-04T12:05:24.924Z,12.19
2023-05-04T12:09:06.249Z,12.22
2023-05-04T12:12:53.149Z,12.22
2023-05-04T12:16:29.049Z,12.13
2023-05-04T12:20:06.716Z,12.16
2023-05-04T12:23:05.135Z,12.16
2023-05-04T12:26:15.362Z,12.14
2023-05-04T12:29:09.877Z,12.15
2023-05-04T12:31:38.732Z,12.18
2023-05-04T12:34:29.432Z,12.19
2023-05-04T12:37:23.880Z,12.21
2023-05-04T12:43:02.414Z,12.18
2023-05-04T12:45:31.056Z,12.20
2023-05-04T12:48:23.174Z,12.26
2023-05-04T12:50:52.216Z,12.28
2023-05-04T12:53:30.232Z,12.32
2023-05-04T12:56:22.083Z,12.32
2023-05-04T12:59:22.748Z,12.30
2023-05-04T13:02:10.831Z,12.30
2023-05-04T13:05:19.541Z,12.30
2023-05-04T13:07:59.254Z,12.37
2023-05-04T13:11:19.752Z,12.44
2023-05-04T13:14:16.855Z,12.50
2023-05-04T13:17:15.766Z,12.57
2023-05-04T13:19:53.516Z,12.67
2023-05-04T13:22:22.996Z,12.75
2023-05-04T13:25:18.906Z,12.78
2023-05-04T13:27:58.983Z,12.84
2023-05-04T13:31:03.220Z,12.89
2023-05-04T13:34:00.720Z,12.92
2023-05-04T13:36:52.543Z,12.94
2023-05-04T13:39:51.385Z,12.92
2023-05-04T13:43:01.438Z,12.94
2023-05-04T13:45:41.740Z,12.95
2023-05-04T13:48:33.208Z,12.90
2023-05-04T13:51:36.555Z,12.87
2023-05-04T13:55:13.598Z,12.86
2023-05-04T13:58:58.057Z,12.70
2023-05-04T14:01:51.566Z,12.64
2023-05-04T14:05:22.883Z,12.65
2023-05-04T14:08:56.474Z,12.61
2023-05-04T14:11:39.022Z,12.58
2023-05-04T14:14:07.521Z,12.49
2023-05-04T14:16:42.507Z,12.42
2023-05-04T14:19:11.005Z,12.38
2023-05-04T14:21:42.389Z,12.36
2023-05-04T14:24:22.513Z,12.34
2023-05-04T14:26:51.336Z,12.31
2023-05-04T14:30:11.500Z,12.26
2023-05-04T14:32:41.241Z,12.25
2023-05-04T14:35:16.760Z,12.23
2023-05-04T14:37:49.527Z,12.20
2023-05-04T14:40:23.805Z,12.23
2023-05-04T14:42:59.870Z,12.26
2023-05-04T14:45:28.669Z,12.28
2023-05-04T14:48:12.223Z,12.30
2023-05-04T14:51:24.611Z,12.33
2023-05-04T14:55:34.013Z,12.36
2023-05-04T14:58:46.409Z,12.35
2023-05-04T15:02:02.958Z,12.37
2023-05-04T15:05:28.549Z,12.26
2023-05-04T15:09:13.277Z,12.23
2023-05-04T15:12:00.637Z,12.25
2023-05-04T15:15:32.470Z,12.28
2023-05-04T15:18:47.380Z,12.27
2023-05-04T15:22:57.027Z,12.25
2023-05-04T15:26:22.848Z,12.19
2023-05-04T15:30:06.256Z,12.10
2023-05-04T15:33:58.972Z,11.99
2023-05-04T15:37:58.139Z,11.94
2023-05-04T15:41:58.761Z,11.93
2023-05-04T15:45:57.014Z,11.98
2023-05-04T15:49:57.703Z,11.96
2023-05-04T15:53:33.060Z,12.00
2023-05-04T15:57:07.567Z,12.03
2023-05-04T16:00:39.726Z,12.02
2023-05-04T16:16:55.354Z,11.80
2023-05-04T16:20:54.935Z,11.74
2023-05-04T16:23:55.215Z,11.69
2023-05-04T16:27:46.274Z,11.67
2023-05-04T16:31:01.697Z,11.63
2023-05-04T16:33:49.178Z,11.57
2023-05-04T16:37:23.602Z,11.55
2023-05-04T16:40:43.325Z,11.55
2023-05-04T16:43:47.418Z,11.53
2023-05-04T16:47:09.053Z,11.49
2023-05-04T16:50:20.833Z,11.31
2023-05-04T16:54:09.824Z,11.21
2023-05-04T16:57:27.492Z,11.12
2023-05-04T17:00:46.981Z,11.04
2023-05-04T17:04:38.731Z,11.01
2023-05-04T17:07:42.222Z,10.95
2023-05-04T17:11:18.682Z,10.91
2023-05-04T17:14:42.025Z,10.80
2023-05-04T17:17:46.883Z,10.77
2023-05-04T17:21:16.826Z,10.75
2023-05-04T17:23:48.761Z,10.71
2023-05-04T17:26:23.215Z,10.67
2023-05-04T17:28:54.946Z,10.64
2023-05-04T17:31:35.289Z,10.55
2023-05-04T17:34:40.329Z,10.48
2023-05-04T17:37:38.041Z,10.45
2023-05-04T17:40:16.347Z,10.43
2023-05-04T17:42:51.034Z,10.41
2023-05-04T17:46:04.769Z,10.35
2023-05-04T17:49:23.286Z,10.30
2023-05-04T17:51:58.248Z,10.27
2023-05-04T17:54:39.108Z,10.24
2023-05-04T17:57:24.050Z,10.23
2023-05-04T17:59:52.594Z,10.17
2023-05-04T18:02:35.863Z,10.11
2023-05-04T18:05:32.666Z,10.08
2023-05-04T18:09:25.843Z,10.05
2023-05-04T18:12:39.883Z,10.04
2023-05-04T18:15:25.141Z,10.03
2023-05-04T18:18:17.358Z,10.01
2023-05-04T18:20:56.598Z,9.99
2023-05-04T18:23:53.470Z,9.95
2023-05-04T18:26:52.585Z,9.92
2023-05-04T18:29:48.636Z,9.89
2023-05-04T18:33:08.941Z,9.89
2023-05-04T18:38:09.180Z,9.88
2023-05-04T18:40:41.100Z,9.88
2023-05-04T18:43:49.011Z,9.85
2023-05-04T18:47:01.075Z,9.83
2023-05-04T18:49:54.986Z,9.84
2023-05-04T18:53:09.266Z,9.84
2023-05-04T18:55:38.204Z,9.81
2023-05-04T18:58:19.318Z,9.77
2023-05-04T19:00:57.727Z,9.75
2023-05-04T19:03:30.557Z,9.70
2023-05-04T19:06:23.153Z,9.68
2023-05-04T19:09:36.053Z,9.69
2023-05-04T19:13:04.457Z,9.68
2023-05-04T19:15:54.385Z,9.68
2023-05-04T19:19:24.408Z,9.63
2023-05-04T19:23:33.056Z,9.61
2023-05-04T19:26:13.310Z,9.60
2023-05-04T19:29:27.288Z,9.59
2023-05-04T19:33:06.963Z,9.52
2023-05-04T19:36:48.767Z,9.51
2023-05-04T19:40:18.912Z,9.51
2023-05-04T19:43:27.053Z,9.52
2023-05-04T19:46:35.929Z,9.50
2023-05-04T19:49:55.733Z,9.47
2023-05-04T19:52:53.082Z,9.47
2023-05-04T19:55:51.252Z,9.43
2023-05-04T19:58:30.084Z,9.40
2023-05-04T20:02:18.642Z,9.41
2023-05-04T20:06:06.551Z,9.41
2023-05-04T20:09:24.093Z,9.40
2023-05-04T20:13:14.054Z,9.34
2023-05-04T20:16:55.931Z,9.31
2023-05-04T20:20:20.558Z,9.26
2023-05-04T20:24:13.591Z,9.27
2023-05-04T20:27:48.455Z,9.24
2023-05-04T20:31:36.011Z,9.24
2023-05-04T20:35:25.828Z,9.22
2023-05-04T20:39:20.863Z,9.16
2023-05-04T20:43:28.338Z,9.05
2023-05-04T20:47:19.181Z,9.05
2023-05-04T20:51:28.563Z,9.06
2023-05-04T20:55:28.698Z,9.05
2023-05-04T20:59:21.487Z,9.01
2023-05-04T21:03:03.120Z,8.98
2023-05-04T21:06:55.696Z,8.97
2023-05-04T21:10:57.693Z,8.93
2023-05-04T21:14:52.565Z,8.89
2023-05-04T21:18:27.101Z,8.84
2023-05-04T21:22:36.541Z,8.85
2023-05-04T21:26:21.923Z,8.83
2023-05-04T21:30:21.539Z,8.83
2023-05-04T21:34:03.985Z,8.80
2023-05-04T21:37:59.515Z,8.79
2023-05-04T21:41:59.534Z,8.81
2023-05-04T21:45:54.643Z,8.79
2023-05-04T21:49:56.501Z,8.74
2023-05-04T21:53:59.132Z,8.67
2023-05-04T21:57:42.701Z,8.65
2023-05-04T22:01:26.136Z,8.65
2023-05-04T22:05:25.054Z,8.61
2023-05-04T22:09:25.215Z,8.61
2023-05-04T22:13:27.603Z,8.54
2023-05-04T22:17:15.093Z,8.46
2023-05-04T22:21:05.761Z,8.46
2023-05-04T22:24:33.358Z,8.45
2023-05-04T22:28:06.366Z,8.43
2023-05-04T22:31:38.649Z,8.41
2023-05-04T22:35:38.244Z,8.43
2023-05-04T22:39:47.678Z,8.41
2023-05-04T22:43:57.121Z,8.36
2023-05-04T22:47:51.939Z,8.33
2023-05-04T22:51:37.338Z,8.31
2023-05-04T22:55:23.721Z,8.27
2023-05-04T22:58:56.902Z,8.24
2023-05-04T23:03:01.027Z,8.22
2023-05-04T23:06:47.252Z,8.23
2023-05-04T23:10:21.612Z,8.23
2023-05-04T23:14:24.935Z,8.26
2023-05-04T23:18:02.592Z,8.29
2023-05-04T23:21:40.060Z,8.30
2023-05-04T23:35:47.444Z,8.25
2023-05-04T23:39:37.984Z,8.23
2023-05-04T23:43:43.235Z,8.20
2023-05-04T23:47:52.866Z,8.23
2023-05-04T23:51:53.766Z,8.25
2023-05-04T23:55:50.243Z,8.23
2023-05-04T23:59:39.682Z,8.26
